Jfe Mercury — JD2719 — position and weather

sailwx.info

Track history (hours):
 
Tides and Currents Weather Stations Pressure Air Temp Water Temp Dewpoint Dewpoint Depression Visibility Wind Speed Wind Dir Waves Ship Positions

Jfe Mercury

Last reported at 2018-Feb-25 03:30 UTC. Time now 2018-Feb-25 03:32 UTC.
Position N 35°33' E 140°01'.

Length 152 m; draft 4.1 m.

Type: Cargo ship. MMSI: 431000822.

Date/timePositionNaut miles runAvg speedWind from/ knotsBaromVisibWave heightAir tempDewpointWater temp
2018-Feb-25 03:30N 35°33' E 140°01'0 0.0
2018-Feb-25 03:00N 35°33' E 140°01'0 0.0
2018-Feb-25 02:30N 35°33' E 140°01'0 0.0
2018-Feb-25 01:54N 35°33' E 140°01'0 0.0
2018-Feb-25 01:30N 35°33' E 140°01'0 0.0
2018-Feb-25 01:00N 35°33' E 140°01'0 0.0
2018-Feb-25 00:30N 35°33' E 140°01'0 0.0
2018-Feb-24 23:57N 35°33' E 140°01'0 0.0
2018-Feb-24 23:27N 35°33' E 140°01'0 0.0
2018-Feb-24 22:57N 35°33' E 140°01'0 0.0
2018-Feb-24 22:30N 35°33' E 140°01'0 0.0
2018-Feb-24 21:57N 35°33' E 140°01'0 0.0
2018-Feb-24 21:27N 35°33' E 140°01'0 0.0
2018-Feb-24 20:57N 35°33' E 140°01'0 0.0
2018-Feb-24 20:27N 35°33' E 140°01'0 0.0
2018-Feb-24 20:00N 35°33' E 140°01'0 0.0
2018-Feb-24 19:27N 35°33' E 140°01'0 0.0
2018-Feb-24 19:00N 35°33' E 140°01'0 0.0
2018-Feb-24 18:30N 35°33' E 140°01'0 0.0
2018-Feb-24 17:57N 35°33' E 140°01'0 0.0
2018-Feb-24 17:27N 35°33' E 140°01'0 0.0
2018-Feb-24 16:57N 35°33' E 140°01'0 0.0
2018-Feb-24 16:30N 35°33' E 140°01'0 0.0
2018-Feb-24 16:00N 35°33' E 140°01'0 0.0
2018-Feb-24 15:30N 35°33' E 140°01'0 0.1
2018-Feb-24 14:57N 35°33' E 140°01'0 0.0
2018-Feb-24 14:27N 35°33' E 140°01'0 0.1
2018-Feb-24 13:51N 35°33' E 140°01'0 0.0
2018-Feb-24 13:30N 35°33' E 140°01'0 0.0
2018-Feb-24 13:00N 35°33' E 140°01'0 0.0
2018-Feb-24 12:24N 35°33' E 140°01'0 0.0
2018-Feb-24 11:57N 35°33' E 140°01'0 0.0
2018-Feb-24 11:27N 35°33' E 140°01'0 0.0
2018-Feb-24 11:00N 35°33' E 140°01'0 0.1
2018-Feb-24 10:15N 35°33' E 140°01'0 0.0
2018-Feb-24 10:00N 35°33' E 140°01'0 0.0
2018-Feb-24 09:27N 35°33' E 140°01'0 0.0
2018-Feb-24 08:57N 35°33' E 140°01'0 0.0
2018-Feb-24 08:27N 35°33' E 140°01'0 0.1
2018-Feb-24 08:00N 35°33' E 140°01'0 0.0
2018-Feb-24 07:30N 35°33' E 140°01'0 0.0
2018-Feb-24 07:00N 35°33' E 140°01'0 0.0
2018-Feb-24 06:27N 35°33' E 140°01'0 0.0
2018-Feb-24 06:00N 35°33' E 140°01'0 0.0
2018-Feb-24 05:30N 35°33' E 140°01'0 0.0
2018-Feb-24 05:00N 35°33' E 140°01'0 0.0
2018-Feb-24 04:30N 35°33' E 140°01'0 0.0
2018-Feb-24 03:57N 35°33' E 140°01'0 0.2
2018-Feb-24 03:21N 35°33' E 140°01'0 0.0
2018-Feb-24 03:00N 35°33' E 140°01'0 0.0
2018-Feb-24 02:27N 35°33' E 140°01'0 0.1
2018-Feb-24 01:57N 35°33' E 140°01'0 0.0
2018-Feb-24 01:30N 35°33' E 140°01'0 0.1
2018-Feb-24 00:57N 35°33' E 140°01'0 0.0
2018-Feb-24 00:27N 35°33' E 140°01'0 0.0
2018-Feb-23 23:57N 35°33' E 140°01'0 0.0
2018-Feb-23 23:27N 35°33' E 140°01'0 0.0
2018-Feb-23 23:00N 35°33' E 140°01'0 0.0
2018-Feb-23 22:30N 35°33' E 140°01'0 0.0
2018-Feb-23 22:00N 35°33' E 140°01'0 0.0
2018-Feb-23 21:30N 35°33' E 140°01'0 0.0
2018-Feb-23 20:57N 35°33' E 140°01'0 0.0
2018-Feb-23 20:27N 35°33' E 140°01'0 0.0
2018-Feb-23 20:00N 35°33' E 140°01'0 0.0
2018-Feb-23 19:30N 35°33' E 140°01'0 0.0
2018-Feb-23 18:57N 35°33' E 140°01'0 0.5
2018-Feb-23 18:30N 35°33' E 140°01'510.0
2018-Feb-23 18:00N 35°31' E 139°55'510.7
2018-Feb-23 17:31N 35°27' E 139°50'5 9.4
2018-Feb-23 17:01N 35°26' E 139°44'2 3.7
2018-Feb-23 16:26N 35°28' E 139°43'0 0.0
2018-Feb-23 15:59N 35°28' E 139°43'0 0.0
2018-Feb-23 15:30N 35°28' E 139°43'1 2.8
2018-Feb-23 15:01N 35°27' E 139°43'4 8.2
2018-Feb-23 14:30N 35°23' E 139°46'5 9.9
2018-Feb-23 14:00N 35°18' E 139°45'510.3
2018-Feb-23 13:30N 35°13' E 139°47'510.7
2018-Feb-23 13:00N 35°08' E 139°46'510.5
2018-Feb-23 12:30N 35°04' E 139°42'510.7
2018-Feb-23 12:00N 35°00' E 139°37'510.6
2018-Feb-23 11:30N 34°57' E 139°32'510.3
2018-Feb-23 11:00N 34°54' E 139°27'510.3
2018-Feb-23 10:30N 34°51' E 139°22'510.4
2018-Feb-23 10:00N 34°48' E 139°17'510.6
2018-Feb-23 09:30N 34°44' E 139°12'510.2
2018-Feb-23 09:00N 34°41' E 139°08'510.0
2018-Feb-23 08:30N 34°38' E 139°03'610.3
2018-Feb-23 07:58N 34°35' E 138°57'510.6
2018-Feb-23 07:30N 34°34' E 138°51'611.2
2018-Feb-23 07:00N 34°34' E 138°44'510.9
2018-Feb-23 06:30N 34°34' E 138°38'510.8
2018-Feb-23 05:59N 34°33' E 138°31'711.6
2018-Feb-23 05:22N 34°33' E 138°22'411.3
2018-Feb-23 05:00N 34°33' E 138°17'611.4
2018-Feb-23 04:30N 34°33' E 138°10'611.6
2018-Feb-23 04:00N 34°33' E 138°03'3311.7
2018-Feb-23 01:11N 34°32' E 137°23'211.8
2018-Feb-23 01:00N 34°32' E 137°21'611.2
2018-Feb-23 00:29N 34°32' E 137°14'910.9
2018-Feb-22 23:40N 34°32' E 137°03'2 9.7
2018-Feb-22 23:30N 34°33' E 137°01'5 9.5
2018-Feb-22 22:57N 34°38' E 136°58'510.6
2018-Feb-22 22:30N 34°42' E 136°59'510.6
2018-Feb-22 22:00N 34°47' E 136°57'5 8.7
2018-Feb-22 21:28N 34°52' E 136°56'0 0.0
2018-Feb-22 16:28N 34°52' E 136°56'0 0.0
2018-Feb-22 16:00N 34°52' E 136°56'2 3.3
2018-Feb-22 15:30N 34°50' E 136°57'610.4
2018-Feb-22 14:58N 34°45' E 136°59'510.7
2018-Feb-22 14:30N 34°40' E 136°59'610.4
2018-Feb-22 13:56N 34°34' E 136°60'103 8.7
2018-Feb-22 02:05N 33°37' E 135°17'1110.7
2018-Feb-22 01:03N 33°45' E 135°08'110.7
2018-Feb-22 00:57N 33°46' E 135°07'510.7
2018-Feb-22 00:29N 33°50' E 135°03'510.6
2018-Feb-22 00:00N 33°54' E 134°58'510.4
2018-Feb-21 23:30N 33°58' E 134°54'510.7
2018-Feb-21 23:00N 34°02' E 134°51'611.1
2018-Feb-21 22:30N 34°06' E 134°46'611.2
2018-Feb-21 22:00N 34°10' E 134°42'611.7
2018-Feb-21 21:30N 34°15' E 134°38'3 7.1
2018-Feb-21 21:00N 34°17' E 134°34'611.3
2018-Feb-21 20:30N 34°19' E 134°28'611.4
2018-Feb-21 20:00N 34°21' E 134°21'612.0
2018-Feb-21 19:30N 34°23' E 134°15'10 0.2
2018-Feb-19 17:45N 34°27' E 134°03'4 9.3
2018-Feb-19 17:18N 34°26' E 134°08'3 9.6
2018-Feb-19 16:59N 34°25' E 134°12'5 9.9
2018-Feb-19 16:29N 34°25' E 134°18'510.8
2018-Feb-19 16:00N 34°26' E 134°24'611.2
2018-Feb-19 15:30N 34°28' E 134°30'611.2
2018-Feb-19 15:00N 34°30' E 134°37'611.5
2018-Feb-19 14:30N 34°32' E 134°43'612.4
2018-Feb-19 14:00N 34°35' E 134°50'612.8
2018-Feb-19 13:30N 34°37' E 134°57'612.1
2018-Feb-19 13:00N 34°36' E 135°04'511.0
2018-Feb-19 12:31N 34°36' E 135°11'611.3
2018-Feb-19 12:00N 34°37' E 135°18'510.6
2018-Feb-19 11:31N 34°36' E 135°24'1 2.3
2018-Feb-19 10:58N 34°35' E 135°26'0 0.0
2018-Feb-19 10:28N 34°35' E 135°26'2 3.9
2018-Feb-19 10:01N 34°36' E 135°24'4 7.4
2018-Feb-19 09:30N 34°35' E 135°20'4 8.6
2018-Feb-19 09:00N 34°32' E 135°16'510.6
2018-Feb-19 08:31N 34°28' E 135°12'510.2
2018-Feb-19 08:00N 34°24' E 135°07'5 9.9
2018-Feb-19 07:31N 34°21' E 135°03'4 9.0
2018-Feb-19 07:00N 34°17' E 134°59'5 9.5
2018-Feb-19 06:30N 34°13' E 134°60'510.2
2018-Feb-19 06:00N 34°08' E 135°00'510.1
2018-Feb-19 05:30N 34°02' E 135°01'510.1
2018-Feb-19 05:00N 33°57' E 135°02'510.0
2018-Feb-19 04:30N 33°52' E 135°02'5 9.7
2018-Feb-19 03:59N 33°48' E 135°06'105 8.4
2018-Feb-18 15:31N 34°33' E 137°01'012.8
2018-Feb-18 15:30N 34°33' E 137°01'610.5
2018-Feb-18 14:55N 34°39' E 136°58'511.5
2018-Feb-18 14:30N 34°44' E 136°59'611.1
2018-Feb-18 14:00N 34°49' E 136°56'3 0.7
2018-Feb-18 09:54N 34°52' E 136°56'0 0.0
2018-Feb-18 09:30N 34°52' E 136°56'0 0.0
2018-Feb-18 08:54N 34°52' E 136°56'0 0.0
2018-Feb-18 08:30N 34°52' E 136°56'0 0.0
2018-Feb-18 07:48N 34°52' E 136°56'0 0.0
2018-Feb-18 03:06N 34°52' E 136°56'0 0.2
2018-Feb-18 02:59N 34°52' E 136°56'2 4.5
2018-Feb-18 02:30N 34°50' E 136°57'5 9.7
2018-Feb-18 01:59N 34°45' E 136°58'5 9.4
2018-Feb-18 01:29N 34°40' E 136°59'6 9.1
2018-Feb-18 00:52N 34°35' E 136°59'10 8.6
2018-Feb-17 23:45N 34°33' E 137°11'310.1
2018-Feb-17 23:29N 34°33' E 137°14'510.1
2018-Feb-17 23:00N 34°34' E 137°20'42 9.0
2018-Feb-17 18:16N 34°35' E 138°11'2 7.7
2018-Feb-17 18:00N 34°34' E 138°14'4 7.8
2018-Feb-17 17:26N 34°34' E 138°19'4 8.2
2018-Feb-17 16:57N 34°34' E 138°24'4 7.8
2018-Feb-17 16:29N 34°34' E 138°29'4 7.5
2018-Feb-17 16:00N 34°35' E 138°33'4 7.2
2018-Feb-17 15:29N 34°35' E 138°37'3 6.4
2018-Feb-17 14:57N 34°35' E 138°42'2 5.1
2018-Feb-17 14:30N 34°35' E 138°44'3 5.2
2018-Feb-17 13:54N 34°35' E 138°48'2 4.5
2018-Feb-17 13:28N 34°35' E 138°51'2 3.8
2018-Feb-17 12:50N 34°35' E 138°53'1 4.2
2018-Feb-17 12:30N 34°35' E 138°55'2 4.1
2018-Feb-17 11:58N 34°36' E 138°58'4 8.1
2018-Feb-17 11:27N 34°39' E 139°01'4 9.8
2018-Feb-17 11:00N 34°43' E 139°04'510.0
2018-Feb-17 10:30N 34°47' E 139°07'6 9.8
2018-Feb-17 09:54N 34°52' E 139°12'4 9.0
2018-Feb-17 09:29N 34°54' E 139°15'4 8.3
2018-Feb-17 09:00N 34°56' E 139°19'4 7.6
2018-Feb-17 08:30N 34°58' E 139°23'4 7.1
2018-Feb-17 08:00N 34°60' E 139°27'4 7.2
2018-Feb-17 07:30N 35°02' E 139°31'5 8.7
2018-Feb-17 06:59N 35°04' E 139°35'5 9.6
2018-Feb-17 06:30N 35°06' E 139°40'4 8.2
2018-Feb-17 06:00N 35°09' E 139°44'4 8.6
2018-Feb-17 05:30N 35°13' E 139°46'5 9.7
2018-Feb-17 05:00N 35°18' E 139°44'510.0
2018-Feb-17 04:30N 35°22' E 139°42'510.1
2018-Feb-17 04:00N 35°27' E 139°43'1 1.1
2018-Feb-17 03:29N 35°28' E 139°43'0 0.0
2018-Feb-17 02:59N 35°28' E 139°43'0 0.0
2018-Feb-17 02:29N 35°28' E 139°43'0 0.0
2018-Feb-17 01:59N 35°28' E 139°43'0 0.0
2018-Feb-17 01:29N 35°28' E 139°43'0 0.0
2018-Feb-17 00:59N 35°28' E 139°43'0 0.0
2018-Feb-17 00:29N 35°28' E 139°43'0 0.0
2018-Feb-16 23:59N 35°28' E 139°43'0 0.1
2018-Feb-16 23:30N 35°28' E 139°43'2 4.3
2018-Feb-16 23:00N 35°27' E 139°45'4 7.4
2018-Feb-16 22:30N 35°28' E 139°49'4 8.2
2018-Feb-16 22:00N 35°31' E 139°54'4 7.9
2018-Feb-16 21:30N 35°32' E 139°58'4 7.9
2018-Feb-16 21:00N 35°34' E 140°03'3 6.9
2018-Feb-16 20:30N 35°33' E 140°07'0 0.0
2018-Feb-16 15:18N 35°33' E 140°07'0 0.0
2018-Feb-16 13:48N 35°33' E 140°07'0 0.0
2018-Feb-16 13:30N 35°33' E 140°07'0 0.0
2018-Feb-16 13:00N 35°33' E 140°07'0 0.0
2018-Feb-16 12:30N 35°33' E 140°07'0 0.0
2018-Feb-16 11:54N 35°33' E 140°07'0 0.0
2018-Feb-16 11:24N 35°33' E 140°07'0 0.0
2018-Feb-16 11:00N 35°33' E 140°07'0 0.0
2018-Feb-16 10:30N 35°33' E 140°07'2 4.7
2018-Feb-16 10:00N 35°33' E 140°04'4 7.9
2018-Feb-16 09:30N 35°34' E 139°59'3 5.3
2018-Feb-16 08:52N 35°35' E 139°55'0 0.0
2018-Feb-16 08:22N 35°35' E 139°55'0 0.0
2018-Feb-16 07:58N 35°35' E 139°55'0 0.0
2018-Feb-16 07:22N 35°35' E 139°55'0 0.0
2018-Feb-16 06:58N 35°35' E 139°55'0 0.0
2018-Feb-16 06:16N 35°35' E 139°55'0 0.0
2018-Feb-16 05:52N 35°35' E 139°55'0 0.0
2018-Feb-16 05:16N 35°35' E 139°55'0 0.1
2018-Feb-16 04:46N 35°35' E 139°55'0 0.1
2018-Feb-16 04:22N 35°35' E 139°55'0 0.1
2018-Feb-16 03:46N 35°35' E 139°55'0 0.0
2018-Feb-16 03:28N 35°35' E 139°55'0 0.1
2018-Feb-16 02:55N 35°35' E 139°55'0 0.0
2018-Feb-16 02:30N 35°35' E 139°55'0 0.0
2018-Feb-16 01:52N 35°35' E 139°55'0 0.0
2018-Feb-16 01:22N 35°35' E 139°55'0 0.0
2018-Feb-16 00:58N 35°35' E 139°55'0 0.0
2018-Feb-16 00:28N 35°35' E 139°55'0 0.0
2018-Feb-15 23:58N 35°35' E 139°55'0 0.0
2018-Feb-15 23:13N 35°35' E 139°55'0 0.0
2018-Feb-15 22:57N 35°35' E 139°55'0 0.0
2018-Feb-15 22:28N 35°35' E 139°55'0 0.0
2018-Feb-15 21:58N 35°35' E 139°55'0 0.1
2018-Feb-15 21:28N 35°35' E 139°55'0 0.0
2018-Feb-15 21:00N 35°35' E 139°55'0 0.0
2018-Feb-15 20:22N 35°35' E 139°55'0 0.0
2018-Feb-15 20:01N 35°35' E 139°55'0 0.0
2018-Feb-15 19:10N 35°35' E 139°55'0 0.0
2018-Feb-15 18:57N 35°35' E 139°55'0 0.0
2018-Feb-15 18:30N 35°35' E 139°55'0 0.0
2018-Feb-15 18:00N 35°35' E 139°55'0 0.0
2018-Feb-15 17:27N 35°35' E 139°55'0 0.0
2018-Feb-15 17:01N 35°35' E 139°55'0 0.1
2018-Feb-15 16:27N 35°35' E 139°55'0 0.0
2018-Feb-15 15:55N 35°35' E 139°55'0 0.1
2018-Feb-15 15:30N 35°35' E 139°55'0 0.0
2018-Feb-15 14:51N 35°35' E 139°55'0 0.1
2018-Feb-15 14:27N 35°35' E 139°55'0 0.1
2018-Feb-15 13:46N 35°35' E 139°55'0 0.0
2018-Feb-15 13:21N 35°35' E 139°55'0 0.0
2018-Feb-15 12:52N 35°35' E 139°55'0 0.0
2018-Feb-15 12:22N 35°35' E 139°55'0 0.0
2018-Feb-15 11:52N 35°35' E 139°55'0 0.0
2018-Feb-15 11:28N 35°35' E 139°55'0 0.0
2018-Feb-15 10:57N 35°35' E 139°55'0 0.0
2018-Feb-15 10:21N 35°35' E 139°55'0 0.1
2018-Feb-15 09:54N 35°35' E 139°55'0 0.1
2018-Feb-15 09:15N 35°35' E 139°55'0 0.1
2018-Feb-15 08:49N 35°35' E 139°55'0 0.0
2018-Feb-15 08:10N 35°35' E 139°55'0 0.0
2018-Feb-15 07:51N 35°35' E 139°55'0 0.1
2018-Feb-15 07:30N 35°35' E 139°55'0 0.0
2018-Feb-15 06:22N 35°35' E 139°55'0 0.0
2018-Feb-15 06:00N 35°35' E 139°55'0 0.0
2018-Feb-15 05:10N 35°35' E 139°55'0 0.2
2018-Feb-15 04:58N 35°35' E 139°55'0 0.0
2018-Feb-15 04:27N 35°35' E 139°55'0 0.0
2018-Feb-15 03:57N 35°35' E 139°55'  
Track history (hours):
 
Tides and Currents Weather Stations Pressure Air Temp Water Temp Dewpoint Dewpoint Depression Visibility Wind Speed Wind Dir Waves Ship Positions

Jfe Mercury

Last reported at 2018-Feb-25 03:30 UTC. Time now 2018-Feb-25 03:32 UTC.
Position N 35°33' E 140°01'.

Length 152 m; draft 4.1 m.

Type: Cargo ship. MMSI: 431000822.

Date/timePositionNaut miles runAvg speedWind from/ knotsBaromVisibWave heightAir tempDewpointWater temp
2018-Feb-25 03:30N 35°33' E 140°01'0 0.0
2018-Feb-25 03:00N 35°33' E 140°01'0 0.0
2018-Feb-25 02:30N 35°33' E 140°01'0 0.0
2018-Feb-25 01:54N 35°33' E 140°01'0 0.0
2018-Feb-25 01:30N 35°33' E 140°01'0 0.0
2018-Feb-25 01:00N 35°33' E 140°01'0 0.0
2018-Feb-25 00:30N 35°33' E 140°01'0 0.0
2018-Feb-24 23:57N 35°33' E 140°01'0 0.0
2018-Feb-24 23:27N 35°33' E 140°01'0 0.0
2018-Feb-24 22:57N 35°33' E 140°01'0 0.0
2018-Feb-24 22:30N 35°33' E 140°01'0 0.0
2018-Feb-24 21:57N 35°33' E 140°01'0 0.0
2018-Feb-24 21:27N 35°33' E 140°01'0 0.0
2018-Feb-24 20:57N 35°33' E 140°01'0 0.0
2018-Feb-24 20:27N 35°33' E 140°01'0 0.0
2018-Feb-24 20:00N 35°33' E 140°01'0 0.0
2018-Feb-24 19:27N 35°33' E 140°01'0 0.0
2018-Feb-24 19:00N 35°33' E 140°01'0 0.0
2018-Feb-24 18:30N 35°33' E 140°01'0 0.0
2018-Feb-24 17:57N 35°33' E 140°01'0 0.0
2018-Feb-24 17:27N 35°33' E 140°01'0 0.0
2018-Feb-24 16:57N 35°33' E 140°01'0 0.0
2018-Feb-24 16:30N 35°33' E 140°01'0 0.0
2018-Feb-24 16:00N 35°33' E 140°01'0 0.0
2018-Feb-24 15:30N 35°33' E 140°01'0 0.1
2018-Feb-24 14:57N 35°33' E 140°01'0 0.0
2018-Feb-24 14:27N 35°33' E 140°01'0 0.1
2018-Feb-24 13:51N 35°33' E 140°01'0 0.0
2018-Feb-24 13:30N 35°33' E 140°01'0 0.0
2018-Feb-24 13:00N 35°33' E 140°01'0 0.0
2018-Feb-24 12:24N 35°33' E 140°01'0 0.0
2018-Feb-24 11:57N 35°33' E 140°01'0 0.0
2018-Feb-24 11:27N 35°33' E 140°01'0 0.0
2018-Feb-24 11:00N 35°33' E 140°01'0 0.1
2018-Feb-24 10:15N 35°33' E 140°01'0 0.0
2018-Feb-24 10:00N 35°33' E 140°01'0 0.0
2018-Feb-24 09:27N 35°33' E 140°01'0 0.0
2018-Feb-24 08:57N 35°33' E 140°01'0 0.0
2018-Feb-24 08:27N 35°33' E 140°01'0 0.1
2018-Feb-24 08:00N 35°33' E 140°01'0 0.0
2018-Feb-24 07:30N 35°33' E 140°01'0 0.0
2018-Feb-24 07:00N 35°33' E 140°01'0 0.0
2018-Feb-24 06:27N 35°33' E 140°01'0 0.0
2018-Feb-24 06:00N 35°33' E 140°01'0 0.0
2018-Feb-24 05:30N 35°33' E 140°01'0 0.0
2018-Feb-24 05:00N 35°33' E 140°01'0 0.0
2018-Feb-24 04:30N 35°33' E 140°01'0 0.0
2018-Feb-24 03:57N 35°33' E 140°01'0 0.2
2018-Feb-24 03:21N 35°33' E 140°01'0 0.0
2018-Feb-24 03:00N 35°33' E 140°01'0 0.0
2018-Feb-24 02:27N 35°33' E 140°01'0 0.1
2018-Feb-24 01:57N 35°33' E 140°01'0 0.0
2018-Feb-24 01:30N 35°33' E 140°01'0 0.1
2018-Feb-24 00:57N 35°33' E 140°01'0 0.0
2018-Feb-24 00:27N 35°33' E 140°01'0 0.0
2018-Feb-23 23:57N 35°33' E 140°01'0 0.0
2018-Feb-23 23:27N 35°33' E 140°01'0 0.0
2018-Feb-23 23:00N 35°33' E 140°01'0 0.0
2018-Feb-23 22:30N 35°33' E 140°01'0 0.0
2018-Feb-23 22:00N 35°33' E 140°01'0 0.0
2018-Feb-23 21:30N 35°33' E 140°01'0 0.0
2018-Feb-23 20:57N 35°33' E 140°01'0 0.0
2018-Feb-23 20:27N 35°33' E 140°01'0 0.0
2018-Feb-23 20:00N 35°33' E 140°01'0 0.0
2018-Feb-23 19:30N 35°33' E 140°01'0 0.0
2018-Feb-23 18:57N 35°33' E 140°01'0 0.5
2018-Feb-23 18:30N 35°33' E 140°01'510.0
2018-Feb-23 18:00N 35°31' E 139°55'510.7
2018-Feb-23 17:31N 35°27' E 139°50'5 9.4
2018-Feb-23 17:01N 35°26' E 139°44'2 3.7
2018-Feb-23 16:26N 35°28' E 139°43'0 0.0
2018-Feb-23 15:59N 35°28' E 139°43'0 0.0
2018-Feb-23 15:30N 35°28' E 139°43'1 2.8
2018-Feb-23 15:01N 35°27' E 139°43'4 8.2
2018-Feb-23 14:30N 35°23' E 139°46'5 9.9
2018-Feb-23 14:00N 35°18' E 139°45'510.3
2018-Feb-23 13:30N 35°13' E 139°47'510.7
2018-Feb-23 13:00N 35°08' E 139°46'510.5
2018-Feb-23 12:30N 35°04' E 139°42'510.7
2018-Feb-23 12:00N 35°00' E 139°37'510.6
2018-Feb-23 11:30N 34°57' E 139°32'510.3
2018-Feb-23 11:00N 34°54' E 139°27'510.3
2018-Feb-23 10:30N 34°51' E 139°22'510.4
2018-Feb-23 10:00N 34°48' E 139°17'510.6
2018-Feb-23 09:30N 34°44' E 139°12'510.2
2018-Feb-23 09:00N 34°41' E 139°08'510.0
2018-Feb-23 08:30N 34°38' E 139°03'610.3
2018-Feb-23 07:58N 34°35' E 138°57'510.6
2018-Feb-23 07:30N 34°34' E 138°51'611.2
2018-Feb-23 07:00N 34°34' E 138°44'510.9
2018-Feb-23 06:30N 34°34' E 138°38'510.8
2018-Feb-23 05:59N 34°33' E 138°31'711.6
2018-Feb-23 05:22N 34°33' E 138°22'411.3
2018-Feb-23 05:00N 34°33' E 138°17'611.4
2018-Feb-23 04:30N 34°33' E 138°10'611.6
2018-Feb-23 04:00N 34°33' E 138°03'3311.7
2018-Feb-23 01:11N 34°32' E 137°23'211.8
2018-Feb-23 01:00N 34°32' E 137°21'611.2
2018-Feb-23 00:29N 34°32' E 137°14'910.9
2018-Feb-22 23:40N 34°32' E 137°03'2 9.7
2018-Feb-22 23:30N 34°33' E 137°01'5 9.5
2018-Feb-22 22:57N 34°38' E 136°58'510.6
2018-Feb-22 22:30N 34°42' E 136°59'510.6
2018-Feb-22 22:00N 34°47' E 136°57'5 8.7
2018-Feb-22 21:28N 34°52' E 136°56'0 0.0
2018-Feb-22 16:28N 34°52' E 136°56'0 0.0
2018-Feb-22 16:00N 34°52' E 136°56'2 3.3
2018-Feb-22 15:30N 34°50' E 136°57'610.4
2018-Feb-22 14:58N 34°45' E 136°59'510.7
2018-Feb-22 14:30N 34°40' E 136°59'610.4
2018-Feb-22 13:56N 34°34' E 136°60'103 8.7
2018-Feb-22 02:05N 33°37' E 135°17'1110.7
2018-Feb-22 01:03N 33°45' E 135°08'110.7
2018-Feb-22 00:57N 33°46' E 135°07'510.7
2018-Feb-22 00:29N 33°50' E 135°03'510.6
2018-Feb-22 00:00N 33°54' E 134°58'510.4
2018-Feb-21 23:30N 33°58' E 134°54'510.7
2018-Feb-21 23:00N 34°02' E 134°51'611.1
2018-Feb-21 22:30N 34°06' E 134°46'611.2
2018-Feb-21 22:00N 34°10' E 134°42'611.7
2018-Feb-21 21:30N 34°15' E 134°38'3 7.1
2018-Feb-21 21:00N 34°17' E 134°34'611.3
2018-Feb-21 20:30N 34°19' E 134°28'611.4
2018-Feb-21 20:00N 34°21' E 134°21'612.0
2018-Feb-21 19:30N 34°23' E 134°15'10 0.2
2018-Feb-19 17:45N 34°27' E 134°03'4 9.3
2018-Feb-19 17:18N 34°26' E 134°08'3 9.6
2018-Feb-19 16:59N 34°25' E 134°12'5 9.9
2018-Feb-19 16:29N 34°25' E 134°18'510.8
2018-Feb-19 16:00N 34°26' E 134°24'611.2
2018-Feb-19 15:30N 34°28' E 134°30'611.2
2018-Feb-19 15:00N 34°30' E 134°37'611.5
2018-Feb-19 14:30N 34°32' E 134°43'612.4
2018-Feb-19 14:00N 34°35' E 134°50'612.8
2018-Feb-19 13:30N 34°37' E 134°57'612.1
2018-Feb-19 13:00N 34°36' E 135°04'511.0
2018-Feb-19 12:31N 34°36' E 135°11'611.3
2018-Feb-19 12:00N 34°37' E 135°18'510.6
2018-Feb-19 11:31N 34°36' E 135°24'1 2.3
2018-Feb-19 10:58N 34°35' E 135°26'0 0.0
2018-Feb-19 10:28N 34°35' E 135°26'2 3.9
2018-Feb-19 10:01N 34°36' E 135°24'4 7.4
2018-Feb-19 09:30N 34°35' E 135°20'4 8.6
2018-Feb-19 09:00N 34°32' E 135°16'510.6
2018-Feb-19 08:31N 34°28' E 135°12'510.2
2018-Feb-19 08:00N 34°24' E 135°07'5 9.9
2018-Feb-19 07:31N 34°21' E 135°03'4 9.0
2018-Feb-19 07:00N 34°17' E 134°59'5 9.5
2018-Feb-19 06:30N 34°13' E 134°60'510.2
2018-Feb-19 06:00N 34°08' E 135°00'510.1
2018-Feb-19 05:30N 34°02' E 135°01'510.1
2018-Feb-19 05:00N 33°57' E 135°02'510.0
2018-Feb-19 04:30N 33°52' E 135°02'5 9.7
2018-Feb-19 03:59N 33°48' E 135°06'105 8.4
2018-Feb-18 15:31N 34°33' E 137°01'012.8
2018-Feb-18 15:30N 34°33' E 137°01'610.5
2018-Feb-18 14:55N 34°39' E 136°58'511.5
2018-Feb-18 14:30N 34°44' E 136°59'611.1
2018-Feb-18 14:00N 34°49' E 136°56'3 0.7
2018-Feb-18 09:54N 34°52' E 136°56'0 0.0
2018-Feb-18 09:30N 34°52' E 136°56'0 0.0
2018-Feb-18 08:54N 34°52' E 136°56'0 0.0
2018-Feb-18 08:30N 34°52' E 136°56'0 0.0
2018-Feb-18 07:48N 34°52' E 136°56'0 0.0
2018-Feb-18 03:06N 34°52' E 136°56'0 0.2
2018-Feb-18 02:59N 34°52' E 136°56'2 4.5
2018-Feb-18 02:30N 34°50' E 136°57'5 9.7
2018-Feb-18 01:59N 34°45' E 136°58'5 9.4
2018-Feb-18 01:29N 34°40' E 136°59'6 9.1
2018-Feb-18 00:52N 34°35' E 136°59'10 8.6
2018-Feb-17 23:45N 34°33' E 137°11'310.1
2018-Feb-17 23:29N 34°33' E 137°14'510.1
2018-Feb-17 23:00N 34°34' E 137°20'42 9.0
2018-Feb-17 18:16N 34°35' E 138°11'2 7.7
2018-Feb-17 18:00N 34°34' E 138°14'4 7.8
2018-Feb-17 17:26N 34°34' E 138°19'4 8.2
2018-Feb-17 16:57N 34°34' E 138°24'4 7.8
2018-Feb-17 16:29N 34°34' E 138°29'4 7.5
2018-Feb-17 16:00N 34°35' E 138°33'4 7.2
2018-Feb-17 15:29N 34°35' E 138°37'3 6.4
2018-Feb-17 14:57N 34°35' E 138°42'2 5.1
2018-Feb-17 14:30N 34°35' E 138°44'3 5.2
2018-Feb-17 13:54N 34°35' E 138°48'2 4.5
2018-Feb-17 13:28N 34°35' E 138°51'2 3.8
2018-Feb-17 12:50N 34°35' E 138°53'1 4.2
2018-Feb-17 12:30N 34°35' E 138°55'2 4.1
2018-Feb-17 11:58N 34°36' E 138°58'4 8.1
2018-Feb-17 11:27N 34°39' E 139°01'4 9.8
2018-Feb-17 11:00N 34°43' E 139°04'510.0
2018-Feb-17 10:30N 34°47' E 139°07'6 9.8
2018-Feb-17 09:54N 34°52' E 139°12'4 9.0
2018-Feb-17 09:29N 34°54' E 139°15'4 8.3
2018-Feb-17 09:00N 34°56' E 139°19'4 7.6
2018-Feb-17 08:30N 34°58' E 139°23'4 7.1
2018-Feb-17 08:00N 34°60' E 139°27'4 7.2
2018-Feb-17 07:30N 35°02' E 139°31'5 8.7
2018-Feb-17 06:59N 35°04' E 139°35'5 9.6
2018-Feb-17 06:30N 35°06' E 139°40'4 8.2
2018-Feb-17 06:00N 35°09' E 139°44'4 8.6
2018-Feb-17 05:30N 35°13' E 139°46'5 9.7
2018-Feb-17 05:00N 35°18' E 139°44'510.0
2018-Feb-17 04:30N 35°22' E 139°42'510.1
2018-Feb-17 04:00N 35°27' E 139°43'1 1.1
2018-Feb-17 03:29N 35°28' E 139°43'0 0.0
2018-Feb-17 02:59N 35°28' E 139°43'0 0.0
2018-Feb-17 02:29N 35°28' E 139°43'0 0.0
2018-Feb-17 01:59N 35°28' E 139°43'0 0.0
2018-Feb-17 01:29N 35°28' E 139°43'0 0.0
2018-Feb-17 00:59N 35°28' E 139°43'0 0.0
2018-Feb-17 00:29N 35°28' E 139°43'0 0.0
2018-Feb-16 23:59N 35°28' E 139°43'0 0.1
2018-Feb-16 23:30N 35°28' E 139°43'2 4.3
2018-Feb-16 23:00N 35°27' E 139°45'4 7.4
2018-Feb-16 22:30N 35°28' E 139°49'4 8.2
2018-Feb-16 22:00N 35°31' E 139°54'4 7.9
2018-Feb-16 21:30N 35°32' E 139°58'4 7.9
2018-Feb-16 21:00N 35°34' E 140°03'3 6.9
2018-Feb-16 20:30N 35°33' E 140°07'0 0.0
2018-Feb-16 15:18N 35°33' E 140°07'0 0.0
2018-Feb-16 13:48N 35°33' E 140°07'0 0.0
2018-Feb-16 13:30N 35°33' E 140°07'0 0.0
2018-Feb-16 13:00N 35°33' E 140°07'0 0.0
2018-Feb-16 12:30N 35°33' E 140°07'0 0.0
2018-Feb-16 11:54N 35°33' E 140°07'0 0.0
2018-Feb-16 11:24N 35°33' E 140°07'0 0.0
2018-Feb-16 11:00N 35°33' E 140°07'0 0.0
2018-Feb-16 10:30N 35°33' E 140°07'2 4.7
2018-Feb-16 10:00N 35°33' E 140°04'4 7.9
2018-Feb-16 09:30N 35°34' E 139°59'3 5.3
2018-Feb-16 08:52N 35°35' E 139°55'0 0.0
2018-Feb-16 08:22N 35°35' E 139°55'0 0.0
2018-Feb-16 07:58N 35°35' E 139°55'0 0.0
2018-Feb-16 07:22N 35°35' E 139°55'0 0.0
2018-Feb-16 06:58N 35°35' E 139°55'0 0.0
2018-Feb-16 06:16N 35°35' E 139°55'0 0.0
2018-Feb-16 05:52N 35°35' E 139°55'0 0.0
2018-Feb-16 05:16N 35°35' E 139°55'0 0.1
2018-Feb-16 04:46N 35°35' E 139°55'0 0.1
2018-Feb-16 04:22N 35°35' E 139°55'0 0.1
2018-Feb-16 03:46N 35°35' E 139°55'0 0.0
2018-Feb-16 03:28N 35°35' E 139°55'0 0.1
2018-Feb-16 02:55N 35°35' E 139°55'0 0.0
2018-Feb-16 02:30N 35°35' E 139°55'0 0.0
2018-Feb-16 01:52N 35°35' E 139°55'0 0.0
2018-Feb-16 01:22N 35°35' E 139°55'0 0.0
2018-Feb-16 00:58N 35°35' E 139°55'0 0.0
2018-Feb-16 00:28N 35°35' E 139°55'0 0.0
2018-Feb-15 23:58N 35°35' E 139°55'0 0.0
2018-Feb-15 23:13N 35°35' E 139°55'0 0.0
2018-Feb-15 22:57N 35°35' E 139°55'0 0.0
2018-Feb-15 22:28N 35°35' E 139°55'0 0.0
2018-Feb-15 21:58N 35°35' E 139°55'0 0.1
2018-Feb-15 21:28N 35°35' E 139°55'0 0.0
2018-Feb-15 21:00N 35°35' E 139°55'0 0.0
2018-Feb-15 20:22N 35°35' E 139°55'0 0.0
2018-Feb-15 20:01N 35°35' E 139°55'0 0.0
2018-Feb-15 19:10N 35°35' E 139°55'0 0.0
2018-Feb-15 18:57N 35°35' E 139°55'0 0.0
2018-Feb-15 18:30N 35°35' E 139°55'0 0.0
2018-Feb-15 18:00N 35°35' E 139°55'0 0.0
2018-Feb-15 17:27N 35°35' E 139°55'0 0.0
2018-Feb-15 17:01N 35°35' E 139°55'0 0.1
2018-Feb-15 16:27N 35°35' E 139°55'0 0.0
2018-Feb-15 15:55N 35°35' E 139°55'0 0.1
2018-Feb-15 15:30N 35°35' E 139°55'0 0.0
2018-Feb-15 14:51N 35°35' E 139°55'0 0.1
2018-Feb-15 14:27N 35°35' E 139°55'0 0.1
2018-Feb-15 13:46N 35°35' E 139°55'0 0.0
2018-Feb-15 13:21N 35°35' E 139°55'0 0.0
2018-Feb-15 12:52N 35°35' E 139°55'0 0.0
2018-Feb-15 12:22N 35°35' E 139°55'0 0.0
2018-Feb-15 11:52N 35°35' E 139°55'0 0.0
2018-Feb-15 11:28N 35°35' E 139°55'0 0.0
2018-Feb-15 10:57N 35°35' E 139°55'0 0.0
2018-Feb-15 10:21N 35°35' E 139°55'0 0.1
2018-Feb-15 09:54N 35°35' E 139°55'0 0.1
2018-Feb-15 09:15N 35°35' E 139°55'0 0.1
2018-Feb-15 08:49N 35°35' E 139°55'0 0.0
2018-Feb-15 08:10N 35°35' E 139°55'0 0.0
2018-Feb-15 07:51N 35°35' E 139°55'0 0.1
2018-Feb-15 07:30N 35°35' E 139°55'0 0.0
2018-Feb-15 06:22N 35°35' E 139°55'0 0.0
2018-Feb-15 06:00N 35°35' E 139°55'0 0.0
2018-Feb-15 05:10N 35°35' E 139°55'0 0.2
2018-Feb-15 04:58N 35°35' E 139°55'0 0.0
2018-Feb-15 04:27N 35°35' E 139°55'0 0.0
2018-Feb-15 03:57N 35°35' E 139°55'  

Dump ship's entire track history